Time;durP1;ratioP1;P1;durP2;ratioP2;P2;SDS_P1;SDS_P2;PMS_P1;PMS_P2;Temp;Humidity;BMP_temperature;BMP_pressure;BME280_temperature;BME280_humidity;BME280_pressure;Samples;Min_cycle;Max_cycle;Signal;HPM_P1;HPM_P2
2022/12/01 00:02:06;;;;;;;93.10;34.73;;;1.40;99.90;;;;;;5023867;28;20223;-71
2022/12/01 00:04:31;;;;;;;109.07;35.77;;;1.40;99.90;;;;;;5027858;28;20214;-71
2022/12/01 00:06:57;;;;;;;91.93;34.57;;;1.40;99.90;;;;;;5028023;28;20247;-70
2022/12/01 00:12:06;;;;;;;98.27;35.50;;;1.60;99.90;;;;;;5029050;28;20672;-71
2022/12/01 00:14:32;;;;;;;91.00;35.37;;;1.60;99.90;;;;;;5022773;28;20205;-69
2022/12/01 00:16:58;;;;;;;94.43;35.33;;;1.70;99.90;;;;;;5021050;28;20758;-71
2022/12/01 00:19:25;;;;;;;100.47;37.73;;;1.70;99.90;;;;;;5028787;28;20215;-71
2022/12/01 00:21:50;;;;;;;99.80;36.47;;;1.80;99.90;;;;;;5023510;28;20205;-71
2022/12/01 00:24:16;;;;;;;109.37;38.13;;;1.70;99.90;;;;;;5025691;28;20176;-71
2022/12/01 00:26:42;;;;;;;110.13;38.37;;;1.80;99.90;;;;;;5028048;28;20729;-71
2022/12/01 00:29:08;;;;;;;107.87;38.00;;;1.80;99.90;;;;;;5023601;28;20219;-70
2022/12/01 00:31:34;;;;;;;93.97;37.30;;;1.70;99.90;;;;;;5027181;28;20260;-71
2022/12/01 00:34:00;;;;;;;96.80;37.20;;;1.70;99.90;;;;;;5025462;28;20215;-70
2022/12/01 00:36:26;;;;;;;93.50;34.83;;;1.60;99.90;;;;;;5027208;28;20229;-71
2022/12/01 00:38:55;;;;;;;96.93;35.57;;;1.70;99.90;;;;;;5028706;28;20204;-69
2022/12/01 00:41:22;;;;;;;90.13;36.17;;;1.60;99.90;;;;;;5025152;28;20215;-72
2022/12/01 00:43:48;;;;;;;93.43;35.83;;;1.50;99.90;;;;;;5024350;28;20642;-69
2022/12/01 00:46:13;;;;;;;88.17;33.47;;;1.60;99.90;;;;;;5026949;28;20308;-69
2022/12/01 00:48:39;;;;;;;83.73;32.33;;;1.60;99.90;;;;;;5024502;28;20699;-69
2022/12/01 00:51:05;;;;;;;91.90;35.07;;;1.60;99.90;;;;;;5025567;28;20287;-69
2022/12/01 00:53:30;;;;;;;94.90;34.77;;;1.60;99.90;;;;;;5027810;28;20208;-70
2022/12/01 00:55:56;;;;;;;85.27;33.10;;;1.40;99.90;;;;;;5020069;28;20208;-69
2022/12/01 00:58:22;;;;;;;80.07;32.57;;;1.40;99.90;;;;;;5026935;28;20205;-69
2022/12/01 01:00:55;;;;;;;83.37;31.80;;;1.40;99.90;;;;;;5025456;28;20218;-70
2022/12/01 01:03:20;;;;;;;85.20;31.83;;;1.30;99.90;;;;;;5030176;28;20178;-70
2022/12/01 01:05:46;;;;;;;87.37;32.93;;;1.50;99.90;;;;;;5029057;28;20183;-68
2022/12/01 01:08:13;;;;;;;78.93;31.20;;;1.50;99.90;;;;;;5025337;28;20683;-69
2022/12/01 01:10:41;;;;;;;70.90;30.50;;;1.40;99.90;;;;;;5027563;28;20223;-71
2022/12/01 01:13:07;;;;;;;77.33;32.83;;;1.40;99.90;;;;;;5025985;28;20223;-71
2022/12/01 01:15:32;;;;;;;84.17;33.13;;;1.40;99.90;;;;;;5025342;28;20208;-72
2022/12/01 01:17:58;;;;;;;83.30;32.43;;;1.50;99.90;;;;;;5029815;28;20180;-72
2022/12/01 01:20:24;;;;;;;80.00;31.27;;;1.60;99.90;;;;;;5027817;28;20242;-71
2022/12/01 01:22:49;;;;;;;77.17;30.47;;;1.60;99.90;;;;;;5026767;28;20204;-71
2022/12/01 01:25:15;;;;;;;78.93;31.07;;;1.70;99.90;;;;;;5027006;28;20208;-72
2022/12/01 01:27:40;;;;;;;79.53;30.33;;;1.70;99.90;;;;;;5032345;28;20224;-68
2022/12/01 01:30:07;;;;;;;77.27;30.83;;;1.70;99.90;;;;;;5026934;28;20223;-70
2022/12/01 01:32:32;;;;;;;83.07;30.13;;;1.60;99.90;;;;;;5027859;28;20220;-72
2022/12/01 01:34:58;;;;;;;82.53;31.80;;;1.70;99.90;;;;;;5023212;28;20211;-71
2022/12/01 01:37:23;;;;;;;80.53;31.83;;;1.70;99.90;;;;;;5020574;28;20207;-70
2022/12/01 01:39:49;;;;;;;79.83;32.27;;;1.70;99.90;;;;;;5027644;28;20227;-71
2022/12/01 01:42:19;;;;;;;83.80;33.97;;;1.60;99.90;;;;;;5024873;28;20193;-70
2022/12/01 01:44:56;;;;;;;80.87;32.97;;;1.60;99.90;;;;;;5024204;28;20226;-71
2022/12/01 01:47:37;;;;;;;83.83;31.40;;;1.70;99.90;;;;;;5021393;28;20219;-71
2022/12/01 01:50:08;;;;;;;75.37;34.00;;;1.50;99.90;;;;;;5021272;28;20593;-71
2022/12/01 01:52:43;;;;;;;83.90;34.90;;;1.50;99.90;;;;;;5024178;28;20262;-71
2022/12/01 01:55:09;;;;;;;83.33;34.27;;;1.60;99.90;;;;;;5023073;28;20210;-71
2022/12/01 01:57:36;;;;;;;84.97;32.40;;;1.60;99.90;;;;;;5027483;28;20561;-71
2022/12/01 02:00:08;;;;;;;79.00;31.83;;;1.60;99.90;;;;;;5026874;28;20709;-73
2022/12/01 02:02:42;;;;;;;81.33;32.37;;;1.60;99.90;;;;;;5022287;28;20679;-71
2022/12/01 02:05:10;;;;;;;81.00;31.80;;;1.60;99.90;;;;;;5024353;28;20220;-71
2022/12/01 02:07:38;;;;;;;76.57;30.63;;;1.60;99.90;;;;;;5026723;28;20227;-71
2022/12/01 02:10:08;;;;;;;85.00;32.43;;;1.70;99.90;;;;;;5021383;28;20223;-70
2022/12/01 02:12:45;;;;;;;83.50;34.43;;;1.60;99.90;;;;;;5025653;28;20279;-70
2022/12/01 02:15:26;;;;;;;86.27;32.47;;;1.60;99.90;;;;;;5024846;28;20540;-71
2022/12/01 02:18:10;;;;;;;83.30;33.13;;;1.50;99.90;;;;;;5022184;28;20179;-70
2022/12/01 02:21:01;;;;;;;97.10;34.83;;;1.50;99.90;;;;;;5023025;28;20698;-70
2022/12/01 02:24:14;;;;;;;92.37;32.13;;;1.50;99.90;;;;;;5023447;28;20222;-71
2022/12/01 02:27:03;;;;;;;87.80;31.97;;;1.50;99.90;;;;;;4936856;29;20299;-69
2022/12/01 02:29:38;;;;;;;84.17;32.30;;;1.40;99.90;;;;;;5023874;28;20227;-70
2022/12/01 02:32:14;;;;;;;82.33;32.93;;;1.60;99.90;;;;;;5037238;23;20329;-73
2022/12/01 02:35:04;;;;;;;88.17;33.77;;;1.60;99.90;;;;;;5022011;28;20794;-72
2022/12/01 02:37:36;;;;;;;87.23;33.07;;;1.60;99.90;;;;;;5025524;28;20218;-73
2022/12/01 02:40:20;;;;;;;84.00;31.73;;;1.60;99.90;;;;;;5027097;28;20210;-73
2022/12/01 02:43:02;;;;;;;86.67;33.70;;;1.50;99.90;;;;;;5025323;28;20207;-73
2022/12/01 02:45:50;;;;;;;88.63;33.10;;;1.50;99.90;;;;;;5023411;28;20713;-74
2022/12/01 02:48:29;;;;;;;94.93;35.10;;;1.60;99.90;;;;;;5028391;28;20177;-74
2022/12/01 02:50:59;;;;;;;81.57;33.73;;;1.50;99.90;;;;;;5024220;28;20180;-73
2022/12/01 02:53:25;;;;;;;89.20;33.23;;;1.50;99.90;;;;;;5031848;28;20207;-73
2022/12/01 02:55:53;;;;;;;89.40;33.70;;;1.60;99.90;;;;;;5026888;28;20244;-73
2022/12/01 02:58:19;;;;;;;86.33;33.10;;;1.50;99.90;;;;;;5032715;28;20215;-73
2022/12/01 03:00:53;;;;;;;83.50;32.73;;;1.40;99.90;;;;;;5030215;28;20203;-73
2022/12/01 03:03:22;;;;;;;87.83;33.23;;;1.30;99.90;;;;;;5025307;28;20182;-74
2022/12/01 03:05:57;;;;;;;100.73;35.20;;;1.40;99.90;;;;;;5022550;28;20618;-74
2022/12/01 03:08:43;;;;;;;90.70;34.77;;;1.40;99.90;;;;;;5029850;28;20215;-74
2022/12/01 03:11:25;;;;;;;86.90;33.13;;;1.30;99.90;;;;;;5024177;28;20247;-73
2022/12/01 03:14:30;;;;;;;92.80;34.10;;;1.30;99.90;;;;;;5025156;28;20750;-73
2022/12/01 03:17:00;;;;;;;94.40;34.80;;;1.40;99.90;;;;;;5022665;28;20281;-73
2022/12/01 03:19:36;;;;;;;103.30;36.50;;;1.50;99.90;;;;;;5023650;28;20216;-73
2022/12/01 03:22:13;;;;;;;95.17;35.70;;;1.50;99.90;;;;;;5021594;28;20226;-74
2022/12/01 03:24:41;;;;;;;97.63;35.77;;;1.40;99.90;;;;;;5024689;28;20654;-73
2022/12/01 03:27:08;;;;;;;98.93;35.97;;;1.40;99.90;;;;;;5022369;28;20202;-73
2022/12/01 03:29:47;;;;;;;93.80;36.00;;;1.40;99.90;;;;;;5027809;28;20668;-74
2022/12/01 03:32:16;;;;;;;97.73;37.60;;;1.30;99.90;;;;;;5020715;28;20777;-73
2022/12/01 03:34:48;;;;;;;90.40;36.87;;;1.30;99.90;;;;;;5025979;28;20242;-73
2022/12/01 03:37:31;;;;;;;101.30;35.67;;;1.30;99.90;;;;;;5021763;28;20665;-73
2022/12/01 03:39:58;;;;;;;100.57;35.90;;;1.30;99.90;;;;;;5020941;28;20220;-73
2022/12/01 03:42:33;;;;;;;92.73;35.70;;;1.40;99.90;;;;;;5026145;28;20301;-73
2022/12/01 03:45:02;;;;;;;90.77;33.10;;;1.40;99.90;;;;;;5024895;28;20201;-73
2022/12/01 03:47:31;;;;;;;100.57;37.20;;;1.40;99.90;;;;;;5025034;28;20248;-73
2022/12/01 03:49:59;;;;;;;97.70;35.03;;;1.40;99.90;;;;;;5021430;28;20586;-74
2022/12/01 03:52:38;;;;;;;94.63;35.70;;;1.50;99.90;;;;;;5021131;28;20219;-73
2022/12/01 03:55:30;;;;;;;96.10;35.03;;;1.40;99.90;;;;;;5021586;28;20208;-74
2022/12/01 03:58:12;;;;;;;97.13;33.90;;;1.50;99.90;;;;;;5019955;28;20257;-73
2022/12/01 04:00:39;;;;;;;99.57;36.50;;;1.30;99.90;;;;;;5020056;28;20314;-74
2022/12/01 04:03:06;;;;;;;104.07;35.93;;;1.40;99.90;;;;;;5019946;28;20703;-73
2022/12/01 04:05:33;;;;;;;100.07;38.30;;;1.40;99.90;;;;;;5022233;28;20204;-73
2022/12/01 04:07:59;;;;;;;110.17;40.17;;;1.50;99.90;;;;;;5020152;28;20305;-73
2022/12/01 04:10:25;;;;;;;99.23;35.83;;;1.40;99.90;;;;;;5023360;28;20227;-73
2022/12/01 04:12:57;;;;;;;106.63;36.03;;;1.40;99.90;;;;;;5020581;28;20211;-73
2022/12/01 04:15:23;;;;;;;93.30;35.87;;;1.40;99.90;;;;;;5024494;28;20172;-73
2022/12/01 04:17:49;;;;;;;93.63;35.60;;;1.40;99.90;;;;;;5022091;28;20178;-73
2022/12/01 04:20:15;;;;;;;109.00;38.57;;;1.30;99.90;;;;;;5020028;28;20611;-73
2022/12/01 04:22:41;;;;;;;107.93;37.47;;;1.30;99.90;;;;;;5023479;28;20599;-72
2022/12/01 04:25:07;;;;;;;101.87;37.53;;;1.30;99.90;;;;;;5021436;28;20207;-73
2022/12/01 04:27:34;;;;;;;105.37;35.37;;;1.30;99.90;;;;;;5020981;28;20315;-73
2022/12/01 04:29:59;;;;;;;105.77;36.70;;;1.30;99.90;;;;;;5022773;28;20180;-73
2022/12/01 04:32:25;;;;;;;108.17;38.60;;;1.40;99.90;;;;;;5022694;28;20240;-73
2022/12/01 04:34:51;;;;;;;98.90;36.57;;;1.20;99.90;;;;;;5019708;28;20206;-73
2022/12/01 04:37:17;;;;;;;111.77;38.63;;;1.20;99.90;;;;;;5021786;28;20215;-73
2022/12/01 04:39:43;;;;;;;120.10;41.60;;;1.20;99.90;;;;;;5022105;28;20906;-73
2022/12/01 04:42:09;;;;;;;101.97;37.53;;;1.20;99.90;;;;;;5018516;28;20315;-73
2022/12/01 04:44:35;;;;;;;115.40;39.87;;;1.20;99.90;;;;;;5024707;28;20216;-73
2022/12/01 04:47:04;;;;;;;113.73;39.03;;;1.20;99.90;;;;;;5024168;28;20223;-73
2022/12/01 04:49:30;;;;;;;105.40;38.20;;;1.20;99.90;;;;;;5022493;28;20211;-73
2022/12/01 04:51:55;;;;;;;112.43;40.87;;;1.10;99.90;;;;;;5019493;28;20220;-73
2022/12/01 04:54:21;;;;;;;114.60;41.23;;;1.10;99.90;;;;;;5020621;28;20178;-73
2022/12/01 04:56:47;;;;;;;119.10;39.50;;;1.10;99.90;;;;;;5024062;28;20654;-73
2022/12/01 04:59:13;;;;;;;117.57;40.73;;;1.00;99.90;;;;;;5021692;28;20220;-73
2022/12/01 05:01:39;;;;;;;127.87;50.57;;;1.10;99.90;;;;;;5018102;28;20496;-73
2022/12/01 05:04:05;;;;;;;122.97;42.47;;;1.10;99.90;;;;;;5019694;28;20226;-73
2022/12/01 05:06:30;;;;;;;108.03;39.07;;;1.00;99.90;;;;;;5019938;28;20218;-73
2022/12/01 05:08:58;;;;;;;105.07;40.47;;;1.10;99.90;;;;;;5020614;28;20189;-73
2022/12/01 05:11:26;;;;;;;108.73;38.23;;;1.00;99.90;;;;;;5022126;28;20227;-73
2022/12/01 05:13:51;;;;;;;108.00;41.27;;;1.10;99.90;;;;;;5020820;28;20591;-73
2022/12/01 05:16:30;;;;;;;105.47;37.77;;;1.00;99.90;;;;;;5020482;28;20210;-73
2022/12/01 05:21:44;;;;;;;104.53;37.60;;;1.10;99.90;;;;;;5019764;28;20249;-72
2022/12/01 05:24:11;;;;;;;98.57;38.70;;;1.00;99.90;;;;;;5022324;28;20181;-73
2022/12/01 05:26:37;;;;;;;96.23;36.43;;;1.00;99.90;;;;;;5024156;28;20301;-73
2022/12/01 05:29:03;;;;;;;102.27;37.90;;;1.10;99.90;;;;;;5026156;28;20201;-72
2022/12/01 05:31:29;;;;;;;99.20;36.83;;;1.00;99.90;;;;;;5024461;28;20609;-73
2022/12/01 05:33:55;;;;;;;90.17;38.30;;;1.00;99.90;;;;;;5023160;28;20297;-73
2022/12/01 05:36:20;;;;;;;99.30;38.33;;;1.00;99.90;;;;;;5027847;28;20201;-73
2022/12/01 05:38:46;;;;;;;94.60;37.17;;;0.90;99.90;;;;;;5021872;28;20233;-72
2022/12/01 05:41:12;;;;;;;97.47;36.30;;;1.00;99.90;;;;;;5028718;28;20228;-73
2022/12/01 05:43:37;;;;;;;101.70;38.77;;;1.00;99.90;;;;;;5030179;28;20299;-73
2022/12/01 05:46:03;;;;;;;91.10;35.40;;;1.00;99.90;;;;;;5021714;28;20220;-74
2022/12/01 05:48:29;;;;;;;90.07;36.50;;;0.90;99.90;;;;;;5023073;28;20620;-73
2022/12/01 05:50:55;;;;;;;99.63;38.47;;;1.00;99.90;;;;;;5026218;28;20189;-75
2022/12/01 05:53:21;;;;;;;93.80;37.13;;;1.00;99.90;;;;;;5026812;28;20215;-74
2022/12/01 05:55:52;;;;;;;96.60;36.40;;;1.10;99.90;;;;;;5025945;28;20210;-74
2022/12/01 05:58:17;;;;;;;92.70;37.60;;;1.10;99.90;;;;;;5026691;28;20202;-72
2022/12/01 06:00:43;;;;;;;93.80;38.67;;;1.20;99.90;;;;;;5025840;28;20650;-73
2022/12/01 06:03:08;;;;;;;97.43;41.60;;;0.90;99.90;;;;;;5027278;28;20287;-74
2022/12/01 06:05:34;;;;;;;102.43;39.80;;;0.90;99.90;;;;;;5026721;28;20564;-74
2022/12/01 06:07:59;;;;;;;104.10;39.90;;;0.90;99.90;;;;;;5023636;28;20252;-73
2022/12/01 06:10:25;;;;;;;103.07;40.33;;;0.90;99.90;;;;;;5028079;28;20218;-72
2022/12/01 06:12:51;;;;;;;108.57;42.13;;;0.90;99.90;;;;;;5021139;28;20268;-73
2022/12/01 06:15:16;;;;;;;104.17;40.33;;;0.90;99.90;;;;;;5026674;28;20234;-73
2022/12/01 06:17:42;;;;;;;103.13;41.50;;;0.90;99.90;;;;;;5024509;28;20603;-74
2022/12/01 06:20:09;;;;;;;94.77;39.83;;;1.00;99.90;;;;;;5019934;28;20693;-75
2022/12/01 06:22:34;;;;;;;101.13;40.93;;;1.00;99.90;;;;;;5028732;28;20222;-73
2022/12/01 06:25:00;;;;;;;94.80;38.37;;;1.00;99.90;;;;;;5023917;28;20314;-73
2022/12/01 06:27:26;;;;;;;88.67;35.77;;;0.90;99.90;;;;;;5022956;28;20740;-72
2022/12/01 06:29:51;;;;;;;94.00;40.37;;;1.00;99.90;;;;;;5026094;28;20190;-73
2022/12/01 06:32:17;;;;;;;92.33;38.77;;;1.00;99.90;;;;;;5024042;28;20224;-73
2022/12/01 06:34:42;;;;;;;91.93;37.10;;;0.90;99.90;;;;;;5024544;28;20302;-74
2022/12/01 06:37:09;;;;;;;91.67;38.57;;;0.80;99.90;;;;;;5017600;28;20290;-73
2022/12/01 06:39:34;;;;;;;95.43;38.67;;;0.80;99.90;;;;;;5025381;28;20219;-73
2022/12/01 06:42:00;;;;;;;92.40;38.03;;;0.90;99.90;;;;;;5023938;28;20348;-73
2022/12/01 06:44:26;;;;;;;92.90;38.13;;;1.00;99.90;;;;;;5026976;28;20224;-72
2022/12/01 06:46:51;;;;;;;91.30;36.53;;;0.90;99.90;;;;;;5020064;28;20225;-72
2022/12/01 06:49:17;;;;;;;87.30;34.20;;;0.90;99.90;;;;;;5024637;28;20203;-71
2022/12/01 06:51:44;;;;;;;90.17;38.07;;;1.00;99.90;;;;;;5024084;28;20258;-73
2022/12/01 06:54:11;;;;;;;85.80;36.40;;;1.10;99.90;;;;;;5024871;28;20228;-72
2022/12/01 06:56:37;;;;;;;85.70;37.20;;;1.10;99.90;;;;;;5028209;28;20257;-71
2022/12/01 06:59:03;;;;;;;90.67;37.17;;;1.10;99.90;;;;;;5022410;28;20214;-70
2022/12/01 07:01:28;;;;;;;89.50;35.73;;;1.00;99.90;;;;;;5021788;28;20750;-72
2022/12/01 07:03:54;;;;;;;92.63;38.57;;;1.00;99.90;;;;;;5023279;28;20238;-71
2022/12/01 07:06:20;;;;;;;95.67;38.10;;;1.00;99.90;;;;;;5025205;28;20299;-72
2022/12/01 07:08:45;;;;;;;89.80;37.00;;;1.00;99.90;;;;;;5020989;28;20208;-72
2022/12/01 07:11:13;;;;;;;99.60;39.53;;;1.10;99.90;;;;;;5021843;28;20717;-72
2022/12/01 07:13:40;;;;;;;94.00;39.23;;;1.10;99.90;;;;;;5021131;28;20648;-74
2022/12/01 07:16:07;;;;;;;89.63;38.37;;;1.00;99.90;;;;;;5022868;28;20263;-72
2022/12/01 07:18:34;;;;;;;99.93;40.03;;;1.20;99.90;;;;;;5025351;28;20209;-72
2022/12/01 07:21:01;;;;;;;99.43;39.43;;;1.20;99.90;;;;;;5019509;28;20183;-72
2022/12/01 07:23:27;;;;;;;104.17;39.97;;;1.10;99.90;;;;;;5027058;28;20207;-71
2022/12/01 07:26:05;;;;;;;99.27;40.43;;;1.20;99.90;;;;;;5023599;28;20209;-72
2022/12/01 07:28:31;;;;;;;87.70;37.97;;;1.10;99.90;;;;;;5022086;28;20206;-71
2022/12/01 07:31:04;;;;;;;91.13;39.77;;;1.20;99.90;;;;;;5024452;28;20694;-72
2022/12/01 07:33:30;;;;;;;98.03;40.67;;;1.20;99.90;;;;;;5029735;28;20208;-72
2022/12/01 07:35:56;;;;;;;100.77;39.87;;;1.10;99.90;;;;;;5025684;28;20857;-73
2022/12/01 07:38:22;;;;;;;92.27;39.17;;;1.10;99.90;;;;;;5031806;28;20261;-72
2022/12/01 07:40:47;;;;;;;100.73;40.90;;;1.20;99.90;;;;;;5026610;28;20207;-71
2022/12/01 07:43:13;;;;;;;107.47;43.00;;;1.30;99.90;;;;;;5030605;28;20237;-72
2022/12/01 07:45:39;;;;;;;105.17;42.40;;;1.30;99.90;;;;;;5027904;28;20256;-72
2022/12/01 07:48:05;;;;;;;98.70;39.50;;;1.40;99.90;;;;;;5022153;28;20290;-72
2022/12/01 07:50:30;;;;;;;107.13;43.40;;;1.40;99.90;;;;;;5029442;28;20208;-72
2022/12/01 07:52:56;;;;;;;111.83;44.17;;;1.40;99.90;;;;;;5025338;28;20295;-72
2022/12/01 07:55:21;;;;;;;106.10;44.43;;;1.30;99.90;;;;;;5028834;28;20233;-72
2022/12/01 07:57:47;;;;;;;114.20;45.30;;;1.20;99.90;;;;;;5028821;28;20276;-71
2022/12/01 08:00:13;;;;;;;107.47;44.50;;;1.30;99.90;;;;;;5025956;28;20556;-71
2022/12/01 08:02:39;;;;;;;109.57;43.30;;;1.30;99.90;;;;;;5025283;28;20274;-71
2022/12/01 08:05:04;;;;;;;117.27;45.77;;;1.30;99.90;;;;;;5027253;28;20300;-71
2022/12/01 08:07:30;;;;;;;122.93;45.73;;;1.30;99.90;;;;;;5030352;28;20219;-72
2022/12/01 08:09:56;;;;;;;110.53;43.77;;;1.30;99.90;;;;;;5024110;28;20497;-71
2022/12/01 08:12:21;;;;;;;116.63;43.73;;;1.30;99.90;;;;;;5028281;28;20246;-71
2022/12/01 08:14:47;;;;;;;121.87;46.60;;;1.40;99.90;;;;;;5022922;28;20266;-71
2022/12/01 08:17:12;;;;;;;124.57;45.93;;;1.40;99.90;;;;;;5029452;28;20702;-71
2022/12/01 08:19:38;;;;;;;125.23;49.23;;;1.40;99.90;;;;;;5026771;28;20290;-71
2022/12/01 08:22:04;;;;;;;116.77;48.53;;;1.30;99.90;;;;;;5021196;28;20694;-71
2022/12/01 08:24:29;;;;;;;122.07;47.10;;;1.30;99.90;;;;;;5029453;28;20211;-71
2022/12/01 08:26:55;;;;;;;133.07;49.37;;;1.20;99.90;;;;;;5028058;28;20208;-71
2022/12/01 08:29:20;;;;;;;136.17;51.40;;;1.30;99.90;;;;;;5027033;28;20398;-71
2022/12/01 08:31:46;;;;;;;132.40;51.17;;;1.20;99.90;;;;;;5027704;28;20238;-72
2022/12/01 08:34:12;;;;;;;132.70;49.87;;;1.30;99.90;;;;;;5055153;22;20236;-74
2022/12/01 08:36:37;;;;;;;129.73;48.73;;;1.30;99.90;;;;;;5024683;28;20222;-74
2022/12/01 08:39:03;;;;;;;133.03;49.30;;;1.20;99.90;;;;;;5022433;28;20185;-74
2022/12/01 08:41:30;;;;;;;146.30;52.20;;;1.20;99.90;;;;;;5023457;28;20619;-75
2022/12/01 08:43:58;;;;;;;140.07;50.27;;;1.20;99.90;;;;;;5024915;28;20225;-74
2022/12/01 08:46:24;;;;;;;134.87;50.77;;;1.20;99.90;;;;;;5027666;28;20251;-74
2022/12/01 08:48:49;;;;;;;131.77;48.17;;;1.20;99.90;;;;;;5021941;28;20234;-75
2022/12/01 08:51:17;;;;;;;134.50;49.83;;;1.30;99.90;;;;;;5030967;28;20643;-74
2022/12/01 08:53:48;;;;;;;131.70;50.27;;;1.40;99.90;;;;;;5025556;28;20204;-72
2022/12/01 08:56:15;;;;;;;126.27;46.90;;;1.40;99.90;;;;;;5022886;28;20704;-75
2022/12/01 08:58:41;;;;;;;128.10;47.57;;;1.30;99.90;;;;;;5030237;28;20208;-71
2022/12/01 09:01:09;;;;;;;120.03;46.83;;;1.30;99.90;;;;;;5022949;28;20213;-73
2022/12/01 09:03:37;;;;;;;119.37;44.73;;;1.40;99.90;;;;;;5024261;28;20226;-74
2022/12/01 09:06:06;;;;;;;127.37;47.83;;;1.40;99.90;;;;;;5027203;28;20585;-74
2022/12/01 09:08:34;;;;;;;130.93;47.83;;;1.30;99.90;;;;;;5024080;28;20261;-75
2022/12/01 09:11:02;;;;;;;133.90;46.70;;;1.20;99.90;;;;;;5029347;28;20208;-75
2022/12/01 09:13:28;;;;;;;122.77;46.20;;;1.30;99.90;;;;;;5030352;28;20212;-75
2022/12/01 09:15:58;;;;;;;134.83;48.97;;;1.30;99.90;;;;;;5021155;28;20230;-73
2022/12/01 09:18:25;;;;;;;129.03;45.90;;;1.30;99.90;;;;;;5028960;28;20227;-73
2022/12/01 09:20:51;;;;;;;126.27;49.43;;;1.30;99.90;;;;;;5025475;28;20597;-73
2022/12/01 09:23:17;;;;;;;133.70;49.80;;;1.30;99.90;;;;;;5023064;28;20298;-73
2022/12/01 09:25:42;;;;;;;137.13;47.60;;;1.40;99.90;;;;;;5022555;28;20251;-73
2022/12/01 09:28:08;;;;;;;130.90;49.53;;;1.40;99.90;;;;;;5022701;28;20229;-74
2022/12/01 09:30:34;;;;;;;124.20;45.53;;;1.50;99.90;;;;;;5026561;28;20210;-74
2022/12/01 09:33:00;;;;;;;125.33;47.57;;;1.50;99.90;;;;;;5024701;28;20229;-75
2022/12/01 09:35:26;;;;;;;136.57;49.60;;;1.50;99.90;;;;;;5024972;28;20712;-72
2022/12/01 09:37:52;;;;;;;129.43;48.07;;;1.40;99.90;;;;;;5027229;28;20287;-75
2022/12/01 09:40:18;;;;;;;132.57;51.00;;;1.40;99.90;;;;;;5023944;28;20219;-74
2022/12/01 09:42:46;;;;;;;136.10;51.20;;;1.30;99.90;;;;;;5025432;28;20247;-74
2022/12/01 09:45:35;;;;;;;130.23;47.27;;;1.30;99.90;;;;;;5029040;28;20217;-74
2022/12/01 09:48:03;;;;;;;138.37;48.27;;;1.40;99.90;;;;;;5023553;28;20235;-73
2022/12/01 09:50:30;;;;;;;133.37;50.23;;;1.40;99.90;;;;;;5029508;28;20262;-73
2022/12/01 09:53:06;;;;;;;134.17;51.07;;;1.50;99.90;;;;;;5025979;28;20231;-74
2022/12/01 09:55:33;;;;;;;139.17;50.77;;;1.60;99.90;;;;;;5024512;28;20720;-73
2022/12/01 09:58:01;;;;;;;140.20;52.40;;;1.60;99.90;;;;;;5026287;28;20214;-73
2022/12/01 10:00:33;;;;;;;136.03;52.77;;;1.60;99.90;;;;;;5026891;28;20638;-73
2022/12/01 10:03:18;;;;;;;129.67;50.33;;;1.60;99.90;;;;;;5037041;28;20220;-74
2022/12/01 10:05:48;;;;;;;131.27;48.77;;;1.50;99.90;;;;;;5029145;28;20212;-74
2022/12/01 10:08:18;;;;;;;119.87;47.00;;;1.50;99.90;;;;;;5024615;28;20254;-74
2022/12/01 10:10:49;;;;;;;114.77;47.17;;;1.50;99.90;;;;;;5026734;28;20204;-74
2022/12/01 10:13:25;;;;;;;121.80;48.50;;;1.40;99.90;;;;;;5023586;28;20215;-74
2022/12/01 10:15:53;;;;;;;135.97;50.23;;;1.40;99.90;;;;;;5020832;28;20236;-75
2022/12/01 10:18:45;;;;;;;117.97;47.17;;;1.40;99.90;;;;;;5024052;28;20269;-75
2022/12/01 10:21:14;;;;;;;122.90;49.17;;;1.40;99.90;;;;;;5024338;28;20213;-74
2022/12/01 10:23:49;;;;;;;144.43;61.17;;;1.40;99.90;;;;;;5021969;28;20273;-73
2022/12/01 10:26:28;;;;;;;118.50;45.77;;;1.50;99.90;;;;;;5028959;28;20298;-74
2022/12/01 10:29:10;;;;;;;116.47;45.37;;;1.50;99.90;;;;;;5024255;28;20240;-75
2022/12/01 10:31:41;;;;;;;110.93;42.87;;;1.50;99.90;;;;;;5026534;28;20274;-74
2022/12/01 10:34:18;;;;;;;105.83;43.97;;;1.60;99.90;;;;;;5026403;28;20217;-75
2022/12/01 10:36:44;;;;;;;103.77;42.87;;;1.70;99.90;;;;;;5019687;28;20212;-74
2022/12/01 10:39:32;;;;;;;108.47;41.80;;;1.60;99.90;;;;;;5027873;28;20271;-73
2022/12/01 10:42:35;;;;;;;104.13;43.40;;;1.80;99.90;;;;;;5023521;28;20681;-75
2022/12/01 10:45:04;;;;;;;100.73;43.57;;;1.80;99.90;;;;;;5036632;28;20694;-74
2022/12/01 10:47:30;;;;;;;101.90;42.27;;;1.70;99.90;;;;;;5028025;28;20230;-73
2022/12/01 10:49:57;;;;;;;102.90;42.60;;;1.60;99.90;;;;;;5021828;28;20208;-74
2022/12/01 10:52:31;;;;;;;99.80;41.93;;;1.60;99.90;;;;;;5028786;28;20685;-75
2022/12/01 10:54:56;;;;;;;95.50;41.10;;;1.70;99.90;;;;;;5022947;28;20208;-75
2022/12/01 10:57:22;;;;;;;96.07;42.27;;;1.60;99.90;;;;;;5022574;28;20650;-73
2022/12/01 10:59:56;;;;;;;104.60;40.77;;;1.60;99.90;;;;;;5027115;28;20187;-75
2022/12/01 11:02:25;;;;;;;89.37;39.17;;;1.70;99.90;;;;;;5022029;28;20266;-74
2022/12/01 11:05:03;;;;;;;94.27;40.30;;;1.50;99.90;;;;;;5022173;28;20208;-74
2022/12/01 11:07:32;;;;;;;96.50;39.83;;;1.50;99.90;;;;;;5026269;28;20226;-74
2022/12/01 11:10:01;;;;;;;93.53;39.37;;;1.60;99.90;;;;;;5026139;28;20265;-73
2022/12/01 11:12:27;;;;;;;88.80;38.90;;;1.60;99.90;;;;;;5027926;28;20616;-74
2022/12/01 11:14:55;;;;;;;92.87;39.80;;;1.60;99.90;;;;;;5027378;28;20178;-74
2022/12/01 11:17:25;;;;;;;91.50;39.53;;;1.60;99.90;;;;;;5026699;28;20211;-74
2022/12/01 11:19:51;;;;;;;82.53;35.47;;;1.60;99.90;;;;;;5025706;28;20230;-74
2022/12/01 11:22:20;;;;;;;81.00;37.10;;;1.70;99.90;;;;;;5028265;28;20232;-74
2022/12/01 11:24:59;;;;;;;88.13;39.03;;;1.80;99.90;;;;;;5028661;28;20215;-74
2022/12/01 11:27:31;;;;;;;84.37;36.83;;;1.80;99.90;;;;;;5026911;28;20196;-75
2022/12/01 11:30:04;;;;;;;93.50;40.20;;;1.80;99.90;;;;;;5024647;28;20242;-75
2022/12/01 11:32:33;;;;;;;94.67;40.63;;;1.90;99.90;;;;;;5029078;28;20204;-74
2022/12/01 11:35:15;;;;;;;94.70;40.90;;;1.80;99.90;;;;;;5030195;28;20235;-75
2022/12/01 11:37:51;;;;;;;87.13;39.00;;;1.80;99.90;;;;;;5026241;28;20263;-72
2022/12/01 11:40:30;;;;;;;88.30;38.90;;;1.80;99.90;;;;;;5031588;28;20725;-73
2022/12/01 11:43:04;;;;;;;91.30;38.73;;;1.80;99.90;;;;;;5025925;28;20281;-74
2022/12/01 11:45:36;;;;;;;91.90;39.50;;;1.70;99.90;;;;;;5030625;28;20214;-74
2022/12/01 11:48:10;;;;;;;90.03;40.93;;;1.60;99.90;;;;;;5027314;28;20274;-75
2022/12/01 11:50:38;;;;;;;88.03;40.20;;;1.60;99.90;;;;;;5040335;28;20222;-74
2022/12/01 11:53:29;;;;;;;90.27;40.27;;;1.70;99.90;;;;;;5030282;28;20222;-73
2022/12/01 11:56:16;;;;;;;93.17;39.03;;;1.80;99.90;;;;;;5025282;28;20686;-74
2022/12/01 11:58:43;;;;;;;80.63;38.20;;;1.90;99.90;;;;;;5031386;28;20215;-72
2022/12/01 12:01:43;;;;;;;88.07;38.00;;;1.90;99.90;;;;;;5021805;28;20228;-73
2022/12/01 12:04:25;;;;;;;83.13;38.50;;;1.90;99.90;;;;;;5024180;28;20212;-74
2022/12/01 12:07:07;;;;;;;76.50;37.77;;;2.00;99.90;;;;;;5034943;28;20777;-75
2022/12/01 12:10:08;;;;;;;91.40;39.97;;;2.00;99.90;;;;;;5038325;28;20309;-74
2022/12/01 12:12:46;;;;;;;82.23;38.67;;;2.00;99.90;;;;;;5014572;28;20243;-75
2022/12/01 12:15:26;;;;;;;80.90;38.23;;;1.90;99.90;;;;;;5030654;28;20189;-75
2022/12/01 12:18:13;;;;;;;84.43;37.87;;;1.90;99.90;;;;;;5022809;28;20176;-74
2022/12/01 12:21:00;;;;;;;87.67;38.03;;;1.90;99.90;;;;;;5024103;28;20252;-74
2022/12/01 12:24:04;;;;;;;78.80;35.70;;;1.90;99.90;;;;;;5024564;28;20216;-74
2022/12/01 12:26:38;;;;;;;80.33;36.23;;;1.80;99.90;;;;;;5007821;28;20216;-74
2022/12/01 12:29:40;;;;;;;77.43;35.73;;;1.90;99.90;;;;;;5025057;28;20671;-74
2022/12/01 12:32:06;;;;;;;83.83;36.93;;;1.90;99.90;;;;;;5021004;28;20627;-74
2022/12/01 12:34:59;;;;;;;74.73;34.33;;;1.80;99.90;;;;;;5026469;28;20225;-74
2022/12/01 12:37:42;;;;;;;76.10;36.57;;;1.90;99.90;;;;;;5021462;28;20215;-74
2022/12/01 12:40:20;;;;;;;68.93;33.90;;;1.80;99.90;;;;;;5026016;28;20204;-74
2022/12/01 12:42:58;;;;;;;71.10;32.83;;;1.70;99.90;;;;;;5026849;28;20215;-73
2022/12/01 12:45:46;;;;;;;70.97;33.20;;;1.80;99.90;;;;;;5043434;28;20182;-75
2022/12/01 12:48:23;;;;;;;72.40;34.83;;;1.80;99.90;;;;;;5044265;28;20189;-75
2022/12/01 12:51:39;;;;;;;72.63;35.30;;;1.90;99.90;;;;;;5040068;28;20214;-74
2022/12/01 12:54:11;;;;;;;69.50;32.50;;;1.90;99.90;;;;;;4993027;28;20222;-74
2022/12/01 12:56:39;;;;;;;69.60;34.57;;;1.80;99.90;;;;;;4989143;28;20209;-72